KABQ/ABQ METAR and TAF weather

Enter ICAO airport designator
Station Type Date Time Source
KABQ METAR 2019/09/20 20:52 UTC NOAA

KABQ 202052Z 20007G23KT 10SM SCT110 28/01 A2998 RMK AO2 PK WND 19027/2040 SLP068 T02830011 57023


Station Type Date Time Source
KABQ Decoded METAR 2019/09/20 20:52 UTC NOAA

ALBUQUERQUE INTERNATIONAL AIRPORT, NM, United States (KABQ) 35-02N 106-36W 1618M
Sep 20, 2019 - 04:52 PM EDT / 2019.09.20 2052 UTC
Wind: from the SSW (200 degrees) at 8 MPH (7 KT) gusting to 26 MPH (23 KT):0
Visibility: 10 mile(s):0
Sky conditions: partly cloudy
Temperature: 82.9 F (28.3 C)
Dew Point: 34.0 F (1.1 C)
Relative Humidity: 17%
Pressure (altimeter): 29.98 in. Hg (1015 hPa)
Pressure tendency: 0.07 inches (2.3 hPa) lower than three hours ago
ob: KABQ 202052Z 20007G23KT 10SM SCT110 28/01 A2998 RMK AO2 PK WND 19027/2040 SLP068 T02830011 57023
cycle: 21

Station Type Date Time Source
KABQ TAF 2019/09/20 18:22 UTC NOAA

TAF KABQ 201720Z 2018/2118 22010KT P6SM FEW120
FM201900 22015G25KT P6SM SCT120
FM210200 23008KT P6SM FEW120

Example: see airport list